Time;durP1;ratioP1;P1;durP2;ratioP2;P2;SDS_P1;SDS_P2;PMS_P1;PMS_P2;Temp;Humidity;BMP_temperature;BMP_pressure;BME280_temperature;BME280_humidity;BME280_pressure;Samples;Min_cycle;Max_cycle;Signal;HPM_P1;HPM_P2
2024/01/05 00:01:44;;;;;;;14.48;8.18;;;;;;;;;;5010330;28;20095;-80
2024/01/05 00:04:10;;;;;;;10.82;7.10;;;;;;;;;;5029507;28;20143;-80
2024/01/05 00:06:40;;;;;;;13.75;8.23;;;;;;;;;;5011160;28;20061;-81
2024/01/05 00:09:06;;;;;;;14.02;7.38;;;;;;;;;;5011154;28;20132;-81
2024/01/05 00:11:32;;;;;;;14.88;7.97;;;;;;;;;;5012004;28;20196;-81
2024/01/05 00:13:58;;;;;;;14.18;7.93;;;;;;;;;;5009069;28;20096;-81
2024/01/05 00:16:25;;;;;;;15.48;8.07;;;;;;;;;;4997910;28;20088;-80
2024/01/05 00:18:51;;;;;;;15.20;8.20;;;;;;;;;;5013030;28;20045;-80
2024/01/05 00:21:23;;;;;;;12.10;7.32;;;;;;;;;;5029551;28;20385;-80
2024/01/05 00:23:50;;;;;;;15.55;8.30;;;;;;;;;;5010792;28;20053;-80
2024/01/05 00:26:17;;;;;;;14.10;7.32;;;;;;;;;;5029050;28;20132;-80
2024/01/05 00:28:43;;;;;;;14.80;7.75;;;;;;;;;;5028834;28;20048;-81
2024/01/05 00:31:13;;;;;;;14.02;7.43;;;;;;;;;;5009678;28;20053;-81
2024/01/05 00:33:39;;;;;;;11.93;6.80;;;;;;;;;;5028167;28;20045;-81
2024/01/05 00:36:06;;;;;;;13.70;7.50;;;;;;;;;;5011636;28;20053;-81
2024/01/05 00:38:32;;;;;;;13.63;7.07;;;;;;;;;;4994268;28;20048;-80
2024/01/05 00:40:58;;;;;;;11.50;7.15;;;;;;;;;;5009855;28;20037;-81
2024/01/05 00:43:24;;;;;;;15.45;7.03;;;;;;;;;;5010659;28;20049;-80
2024/01/05 00:45:50;;;;;;;13.45;7.38;;;;;;;;;;4993671;28;20098;-81
2024/01/05 00:48:16;;;;;;;15.43;7.00;;;;;;;;;;4994598;28;20049;-81
2024/01/05 00:50:42;;;;;;;13.38;6.75;;;;;;;;;;5011169;28;20073;-81
2024/01/05 00:53:08;;;;;;;11.70;6.75;;;;;;;;;;5010982;28;20045;-81
2024/01/05 00:55:34;;;;;;;15.35;7.07;;;;;;;;;;5010004;28;20038;-81
2024/01/05 00:58:00;;;;;;;14.82;6.88;;;;;;;;;;4995276;28;20069;-81
2024/01/05 01:00:26;;;;;;;11.43;7.13;;;;;;;;;;5010608;28;20103;-81
2024/01/05 01:02:52;;;;;;;16.23;8.20;;;;;;;;;;4993824;28;20061;-81
2024/01/05 01:05:19;;;;;;;13.80;7.13;;;;;;;;;;5009416;28;20117;-81
2024/01/05 01:07:45;;;;;;;15.30;7.05;;;;;;;;;;4993141;28;20056;-81
2024/01/05 01:10:11;;;;;;;17.65;7.28;;;;;;;;;;5027592;28;20042;-81
2024/01/05 01:12:37;;;;;;;16.42;7.78;;;;;;;;;;4994770;28;20103;-81
2024/01/05 01:15:03;;;;;;;15.20;7.30;;;;;;;;;;5029281;28;20046;-81
2024/01/05 01:17:30;;;;;;;12.15;7.07;;;;;;;;;;5009803;28;20041;-81
2024/01/05 01:19:56;;;;;;;15.18;7.18;;;;;;;;;;5029634;28;20053;-81
2024/01/05 01:22:22;;;;;;;15.50;7.53;;;;;;;;;;5027204;28;20127;-81
2024/01/05 01:24:48;;;;;;;13.40;7.55;;;;;;;;;;5011428;28;20466;-81
2024/01/05 01:27:18;;;;;;;13.07;6.55;;;;;;;;;;5010557;28;20670;-81
2024/01/05 01:29:44;;;;;;;14.27;7.30;;;;;;;;;;5011219;28;20071;-81
2024/01/05 01:32:10;;;;;;;15.82;7.65;;;;;;;;;;5009697;28;20049;-81
2024/01/05 01:34:39;;;;;;;14.23;7.28;;;;;;;;;;5010620;28;20189;-81
2024/01/05 01:37:05;;;;;;;14.77;7.25;;;;;;;;;;5027102;28;20041;-81
2024/01/05 01:39:31;;;;;;;18.45;8.02;;;;;;;;;;5009596;28;20057;-82
2024/01/05 01:41:58;;;;;;;17.92;7.80;;;;;;;;;;5008124;28;20156;-81
2024/01/05 01:44:26;;;;;;;13.50;7.97;;;;;;;;;;5006275;28;20049;-80
2024/01/05 01:46:54;;;;;;;16.15;8.48;;;;;;;;;;5009220;28;20192;-81
2024/01/05 01:49:20;;;;;;;17.90;8.57;;;;;;;;;;5008082;28;20470;-81
2024/01/05 01:51:46;;;;;;;13.82;7.97;;;;;;;;;;5009660;28;20491;-81
2024/01/05 01:54:13;;;;;;;17.38;9.10;;;;;;;;;;5009953;28;20525;-81
2024/01/05 01:56:39;;;;;;;18.85;8.95;;;;;;;;;;5009445;28;20050;-81
2024/01/05 01:59:06;;;;;;;17.10;8.93;;;;;;;;;;4992727;28;20048;-81
2024/01/05 02:01:32;;;;;;;16.48;9.00;;;;;;;;;;5009423;28;20057;-82
2024/01/05 02:04:00;;;;;;;14.85;8.68;;;;;;;;;;5008389;28;20050;-82
2024/01/05 02:06:26;;;;;;;18.00;9.20;;;;;;;;;;5007221;28;20403;-82
2024/01/05 02:08:52;;;;;;;14.50;8.85;;;;;;;;;;5009183;28;20092;-82
2024/01/05 02:11:18;;;;;;;15.75;8.88;;;;;;;;;;5009461;28;20091;-81
2024/01/05 02:13:44;;;;;;;13.10;8.82;;;;;;;;;;5007893;28;20068;-81
2024/01/05 02:16:10;;;;;;;18.95;9.48;;;;;;;;;;5008683;28;20042;-81
2024/01/05 02:18:36;;;;;;;14.50;9.13;;;;;;;;;;5009512;28;20151;-82
2024/01/05 02:21:04;;;;;;;13.30;8.40;;;;;;;;;;5026282;28;20255;-81
2024/01/05 02:23:31;;;;;;;13.68;8.25;;;;;;;;;;5008484;28;20128;-81
2024/01/05 02:25:58;;;;;;;19.88;9.75;;;;;;;;;;5026697;28;20480;-81
2024/01/05 02:28:24;;;;;;;15.60;8.88;;;;;;;;;;5008445;28;20395;-82
2024/01/05 02:30:53;;;;;;;14.45;8.93;;;;;;;;;;4993397;28;20123;-81
2024/01/05 02:33:19;;;;;;;17.90;9.35;;;;;;;;;;5007004;28;20055;-81
2024/01/05 02:35:45;;;;;;;15.02;9.43;;;;;;;;;;4992825;28;20396;-82
2024/01/05 02:38:11;;;;;;;17.48;9.52;;;;;;;;;;4992376;28;20038;-81
2024/01/05 02:40:37;;;;;;;20.55;9.77;;;;;;;;;;5008480;28;20519;-83
2024/01/05 02:43:03;;;;;;;18.15;9.63;;;;;;;;;;5008662;28;20049;-81
2024/01/05 02:45:29;;;;;;;17.30;8.88;;;;;;;;;;5008736;28;20487;-83
2024/01/05 02:47:56;;;;;;;15.48;9.88;;;;;;;;;;5007714;28;20045;-81
2024/01/05 02:50:22;;;;;;;15.27;8.98;;;;;;;;;;5008848;28;20140;-81
2024/01/05 02:52:48;;;;;;;16.48;9.25;;;;;;;;;;5007915;28;20135;-81
2024/01/05 02:55:14;;;;;;;15.77;9.18;;;;;;;;;;5009743;28;20049;-81
2024/01/05 02:57:41;;;;;;;14.93;9.05;;;;;;;;;;5008601;28;20046;-81
2024/01/05 03:00:07;;;;;;;16.02;9.27;;;;;;;;;;5007541;28;20534;-82
2024/01/05 03:02:33;;;;;;;16.17;9.25;;;;;;;;;;4994408;28;20052;-82
2024/01/05 03:04:59;;;;;;;13.32;8.93;;;;;;;;;;5010704;28;20403;-82
2024/01/05 03:07:25;;;;;;;14.93;8.80;;;;;;;;;;5012064;28;20494;-83
2024/01/05 03:09:51;;;;;;;18.30;9.65;;;;;;;;;;5014487;28;20079;-82
2024/01/05 03:12:18;;;;;;;16.27;9.38;;;;;;;;;;5012254;28;20049;-83
2024/01/05 03:14:44;;;;;;;16.63;9.70;;;;;;;;;;5011379;28;20067;-82
2024/01/05 03:17:10;;;;;;;16.52;9.30;;;;;;;;;;4994285;28;20659;-82
2024/01/05 03:19:36;;;;;;;16.27;9.48;;;;;;;;;;4998349;28;20089;-83
2024/01/05 03:22:02;;;;;;;16.20;9.13;;;;;;;;;;5011564;28;20589;-83
2024/01/05 03:24:28;;;;;;;17.38;9.32;;;;;;;;;;5012731;28;20534;-83
2024/01/05 03:26:54;;;;;;;12.23;8.80;;;;;;;;;;4995292;28;20073;-82
2024/01/05 03:29:20;;;;;;;16.83;9.45;;;;;;;;;;5011697;28;20141;-82
2024/01/05 03:31:47;;;;;;;14.60;9.13;;;;;;;;;;5010923;28;20044;-83
2024/01/05 03:34:13;;;;;;;14.02;9.13;;;;;;;;;;5011635;28;20632;-83
2024/01/05 03:36:39;;;;;;;15.63;9.80;;;;;;;;;;5011999;28;20049;-82
2024/01/05 03:39:07;;;;;;;13.98;9.43;;;;;;;;;;4995051;28;20049;-82
2024/01/05 03:41:33;;;;;;;15.13;9.32;;;;;;;;;;5011727;28;20391;-81
2024/01/05 03:43:59;;;;;;;14.30;8.60;;;;;;;;;;5012147;28;20053;-82
2024/01/05 03:46:25;;;;;;;13.77;9.23;;;;;;;;;;5010977;28;20059;-82
2024/01/05 03:48:51;;;;;;;16.50;9.10;;;;;;;;;;5002578;28;20107;-82
2024/01/05 03:51:18;;;;;;;15.73;8.73;;;;;;;;;;5011394;28;20053;-82
2024/01/05 03:53:44;;;;;;;16.45;8.77;;;;;;;;;;5011536;28;20582;-82
2024/01/05 03:56:10;;;;;;;14.82;9.10;;;;;;;;;;5010463;28;20053;-82
2024/01/05 03:58:36;;;;;;;16.30;8.93;;;;;;;;;;5011945;28;20534;-82
2024/01/05 04:01:02;;;;;;;17.27;10.13;;;;;;;;;;5010692;28;20045;-81
2024/01/05 04:03:29;;;;;;;14.68;8.85;;;;;;;;;;5009661;28;20073;-82
2024/01/05 04:05:55;;;;;;;15.40;9.73;;;;;;;;;;5011323;28;20076;-83
2024/01/05 04:08:21;;;;;;;14.98;9.55;;;;;;;;;;4993499;28;20041;-82
2024/01/05 04:10:47;;;;;;;17.48;9.73;;;;;;;;;;5029484;28;20048;-82
2024/01/05 04:13:13;;;;;;;17.52;10.65;;;;;;;;;;5027279;28;20038;-81
2024/01/05 04:15:39;;;;;;;16.02;9.82;;;;;;;;;;5011143;28;20041;-81
2024/01/05 04:18:06;;;;;;;17.13;10.15;;;;;;;;;;4994734;28;20770;-81
2024/01/05 04:20:32;;;;;;;16.85;10.65;;;;;;;;;;5009480;28;20060;-81
2024/01/05 04:22:58;;;;;;;18.55;9.93;;;;;;;;;;5010168;28;20088;-81
2024/01/05 04:25:24;;;;;;;15.18;9.68;;;;;;;;;;5028176;28;20212;-82
2024/01/05 04:27:50;;;;;;;15.73;10.00;;;;;;;;;;5009909;28;20566;-81
2024/01/05 04:30:16;;;;;;;15.98;9.70;;;;;;;;;;5010565;28;20057;-81
2024/01/05 04:32:44;;;;;;;18.08;10.50;;;;;;;;;;5010446;28;20595;-82
2024/01/05 04:35:10;;;;;;;17.25;9.57;;;;;;;;;;5010545;28;20460;-81
2024/01/05 04:37:35;;;;;;;17.60;10.15;;;;;;;;;;5008827;28;20073;-80
2024/01/05 04:40:02;;;;;;;21.58;10.38;;;;;;;;;;5010604;28;20037;-81
2024/01/05 04:42:28;;;;;;;18.40;10.05;;;;;;;;;;5009372;28;20053;-82
2024/01/05 04:44:54;;;;;;;16.88;9.57;;;;;;;;;;5010315;28;20047;-81
2024/01/05 04:47:20;;;;;;;18.65;10.55;;;;;;;;;;5010256;28;20045;-81
2024/01/05 04:49:46;;;;;;;17.98;10.75;;;;;;;;;;5010567;28;20156;-81
2024/01/05 04:52:12;;;;;;;14.93;10.15;;;;;;;;;;5009259;28;20053;-81
2024/01/05 04:54:38;;;;;;;19.08;10.57;;;;;;;;;;5008568;28;20046;-81
2024/01/05 04:57:04;;;;;;;18.40;10.35;;;;;;;;;;5009274;28;20042;-81
2024/01/05 04:59:30;;;;;;;16.60;10.77;;;;;;;;;;5010781;28;20057;-81
2024/01/05 05:01:57;;;;;;;18.83;11.13;;;;;;;;;;5006456;28;20123;-82
2024/01/05 05:04:23;;;;;;;20.35;11.40;;;;;;;;;;4991071;28;20519;-80
2024/01/05 05:06:49;;;;;;;20.58;11.55;;;;;;;;;;5009243;28;20128;-82
2024/01/05 05:09:15;;;;;;;16.90;10.80;;;;;;;;;;5009920;28;20045;-81
2024/01/05 05:11:41;;;;;;;19.85;12.02;;;;;;;;;;5009717;28;20171;-81
2024/01/05 05:14:07;;;;;;;20.63;11.77;;;;;;;;;;4999580;28;20516;-81
2024/01/05 05:16:35;;;;;;;21.02;11.93;;;;;;;;;;5009215;28;20045;-82
2024/01/05 05:19:01;;;;;;;21.95;11.82;;;;;;;;;;4994004;28;20514;-80
2024/01/05 05:21:28;;;;;;;19.30;11.38;;;;;;;;;;5009126;28;20045;-80
2024/01/05 05:23:54;;;;;;;19.08;11.52;;;;;;;;;;5008914;28;20092;-80
2024/01/05 05:26:20;;;;;;;22.70;12.00;;;;;;;;;;5009255;28;20045;-80
2024/01/05 05:28:46;;;;;;;21.08;11.05;;;;;;;;;;5009193;28;20052;-80
2024/01/05 05:31:12;;;;;;;18.60;11.68;;;;;;;;;;5009962;28;20053;-80
2024/01/05 05:33:38;;;;;;;19.75;12.82;;;;;;;;;;5009052;28;20080;-80
2024/01/05 05:36:05;;;;;;;21.25;11.45;;;;;;;;;;5009466;28;20122;-80
2024/01/05 05:38:31;;;;;;;18.38;11.82;;;;;;;;;;4992645;28;20057;-81
2024/01/05 05:40:57;;;;;;;19.33;11.32;;;;;;;;;;5013153;28;20081;-81
2024/01/05 05:43:23;;;;;;;19.00;11.05;;;;;;;;;;4993923;28;20163;-81
2024/01/05 05:45:49;;;;;;;19.27;11.73;;;;;;;;;;5011542;28;20057;-81
2024/01/05 05:48:15;;;;;;;20.63;11.95;;;;;;;;;;5010028;28;20136;-80
2024/01/05 05:50:41;;;;;;;19.73;11.23;;;;;;;;;;5008039;28;20125;-80
2024/01/05 05:53:09;;;;;;;17.27;11.20;;;;;;;;;;5009295;28;20126;-81
2024/01/05 05:55:36;;;;;;;16.77;11.18;;;;;;;;;;5027753;28;20053;-80
2024/01/05 05:58:02;;;;;;;22.90;12.27;;;;;;;;;;5009050;28;20073;-80
2024/01/05 06:00:28;;;;;;;19.23;11.40;;;;;;;;;;5011039;28;20045;-80
2024/01/05 06:02:54;;;;;;;15.18;10.77;;;;;;;;;;5008664;28;20111;-81
2024/01/05 06:05:20;;;;;;;20.55;12.27;;;;;;;;;;5011263;28;20103;-81
2024/01/05 06:07:46;;;;;;;17.67;11.10;;;;;;;;;;5005109;28;20041;-81
2024/01/05 06:10:12;;;;;;;19.92;11.63;;;;;;;;;;5010801;28;20120;-80
2024/01/05 06:12:38;;;;;;;18.65;11.77;;;;;;;;;;5009490;28;20111;-81
2024/01/05 06:15:04;;;;;;;18.08;11.35;;;;;;;;;;5008879;28;20465;-81
2024/01/05 06:17:30;;;;;;;18.88;11.88;;;;;;;;;;5009618;28;20083;-82
2024/01/05 06:19:56;;;;;;;21.77;11.25;;;;;;;;;;5010743;28;20430;-81
2024/01/05 06:22:22;;;;;;;20.45;11.60;;;;;;;;;;5008159;28;20479;-81
2024/01/05 06:24:51;;;;;;;16.98;11.13;;;;;;;;;;4993183;28;20053;-82
2024/01/05 06:27:17;;;;;;;21.63;12.27;;;;;;;;;;5008645;28;20049;-82
2024/01/05 06:29:43;;;;;;;19.60;11.32;;;;;;;;;;5010018;28;20043;-81
2024/01/05 06:32:09;;;;;;;19.13;11.60;;;;;;;;;;4999762;28;20069;-81
2024/01/05 06:34:35;;;;;;;20.27;11.55;;;;;;;;;;5009645;28;20050;-81
2024/01/05 06:37:01;;;;;;;20.75;12.02;;;;;;;;;;4996639;28;20045;-81
2024/01/05 06:39:27;;;;;;;19.58;12.00;;;;;;;;;;5014426;28;20126;-81
2024/01/05 06:41:53;;;;;;;20.45;12.70;;;;;;;;;;5013729;28;20049;-81
2024/01/05 06:44:19;;;;;;;25.45;12.23;;;;;;;;;;4997010;28;20045;-81
2024/01/05 06:46:45;;;;;;;23.55;12.93;;;;;;;;;;5013155;28;20111;-82
2024/01/05 06:49:11;;;;;;;21.95;12.57;;;;;;;;;;4993738;28;20415;-81
2024/01/05 06:51:40;;;;;;;25.63;12.27;;;;;;;;;;5010714;28;20536;-81
2024/01/05 06:54:06;;;;;;;24.13;12.40;;;;;;;;;;5010608;28;20124;-80
2024/01/05 06:56:33;;;;;;;26.30;12.50;;;;;;;;;;5029919;28;20045;-80
2024/01/05 06:59:03;;;;;;;24.95;13.10;;;;;;;;;;5012400;28;20060;-81
2024/01/05 07:01:29;;;;;;;21.38;12.73;;;;;;;;;;4995914;28;20798;-80
2024/01/05 07:03:55;;;;;;;23.65;14.13;;;;;;;;;;5015385;28;20136;-81
2024/01/05 07:06:21;;;;;;;27.08;12.93;;;;;;;;;;5030115;28;20056;-81
2024/01/05 07:08:47;;;;;;;24.58;13.35;;;;;;;;;;5008995;28;20057;-81
2024/01/05 07:11:22;;;;;;;23.33;12.85;;;;;;;;;;5013298;28;20041;-81
2024/01/05 07:13:49;;;;;;;23.48;13.27;;;;;;;;;;5014189;28;20060;-81
2024/01/05 07:16:16;;;;;;;28.02;14.02;;;;;;;;;;5013766;28;20080;-81
2024/01/05 07:18:42;;;;;;;25.90;14.13;;;;;;;;;;5011634;28;20056;-81
2024/01/05 07:21:08;;;;;;;26.98;14.25;;;;;;;;;;5011828;28;20759;-81
2024/01/05 07:23:36;;;;;;;33.17;14.98;;;;;;;;;;5013153;28;20049;-81
2024/01/05 07:26:02;;;;;;;26.95;14.52;;;;;;;;;;5013837;28;20091;-81
2024/01/05 07:28:28;;;;;;;30.27;15.55;;;;;;;;;;4997082;28;20045;-81
2024/01/05 07:30:54;;;;;;;27.95;14.43;;;;;;;;;;5013619;28;20747;-82
2024/01/05 07:33:20;;;;;;;28.38;14.50;;;;;;;;;;5013378;28;20042;-81
2024/01/05 07:35:46;;;;;;;29.27;14.70;;;;;;;;;;5013061;28;20128;-80
2024/01/05 07:38:12;;;;;;;28.38;15.30;;;;;;;;;;5012742;28;20399;-82
2024/01/05 07:40:38;;;;;;;32.22;15.25;;;;;;;;;;5015950;28;20152;-82
2024/01/05 07:43:04;;;;;;;27.05;13.75;;;;;;;;;;5013357;28;20132;-81
2024/01/05 07:45:30;;;;;;;31.00;15.75;;;;;;;;;;5015430;28;20049;-82
2024/01/05 07:47:58;;;;;;;28.92;15.07;;;;;;;;;;5025865;28;20056;-79
2024/01/05 07:50:27;;;;;;;31.67;15.93;;;;;;;;;;5034278;28;20102;-82
2024/01/05 07:52:53;;;;;;;24.17;14.57;;;;;;;;;;5019222;28;20073;-83
2024/01/05 07:55:19;;;;;;;29.80;15.63;;;;;;;;;;5013515;28;20069;-82
2024/01/05 07:57:45;;;;;;;29.88;15.43;;;;;;;;;;5013460;28;20096;-83
2024/01/05 08:00:12;;;;;;;29.65;14.88;;;;;;;;;;4996914;28;20308;-83
2024/01/05 08:02:38;;;;;;;30.15;15.43;;;;;;;;;;5024658;28;20519;-83
2024/01/05 08:05:04;;;;;;;27.17;14.68;;;;;;;;;;5031886;28;20049;-83
2024/01/05 08:07:30;;;;;;;32.03;15.68;;;;;;;;;;5019297;28;20083;-83
2024/01/05 08:09:56;;;;;;;29.38;15.15;;;;;;;;;;4997263;28;20485;-83
2024/01/05 08:12:22;;;;;;;28.00;15.20;;;;;;;;;;5013346;28;20049;-83
2024/01/05 08:14:48;;;;;;;30.60;15.80;;;;;;;;;;5014026;28;20506;-81
2024/01/05 08:17:14;;;;;;;24.35;15.15;;;;;;;;;;5031045;28;20049;-82
2024/01/05 08:19:40;;;;;;;28.40;14.38;;;;;;;;;;5027309;28;20052;-82
2024/01/05 08:22:06;;;;;;;31.27;14.68;;;;;;;;;;5029015;28;20045;-84
2024/01/05 08:24:32;;;;;;;29.80;14.40;;;;;;;;;;5033038;28;20127;-85
2024/01/05 08:26:58;;;;;;;29.55;14.55;;;;;;;;;;5032885;28;20051;-82
2024/01/05 08:29:24;;;;;;;24.95;14.60;;;;;;;;;;5013475;28;20049;-80
2024/01/05 08:31:51;;;;;;;26.90;14.30;;;;;;;;;;4996326;28;20530;-84
2024/01/05 08:34:18;;;;;;;29.55;15.57;;;;;;;;;;5031178;28;20095;-82
2024/01/05 08:36:44;;;;;;;27.35;15.38;;;;;;;;;;5003435;28;20042;-83
2024/01/05 08:39:10;;;;;;;25.08;13.98;;;;;;;;;;5015633;28;20195;-83
2024/01/05 08:41:36;;;;;;;27.27;13.43;;;;;;;;;;5028882;28;20060;-82
2024/01/05 08:44:02;;;;;;;25.55;13.32;;;;;;;;;;5029921;28;20129;-81
2024/01/05 08:46:32;;;;;;;27.25;13.65;;;;;;;;;;4999116;28;20113;-83
2024/01/05 08:48:58;;;;;;;25.77;13.07;;;;;;;;;;5018653;28;20476;-82
2024/01/05 08:51:24;;;;;;;27.90;13.13;;;;;;;;;;5001675;28;20042;-82
2024/01/05 08:53:50;;;;;;;24.33;13.00;;;;;;;;;;5002304;28;20352;-82
2024/01/05 08:56:16;;;;;;;24.23;13.93;;;;;;;;;;5013333;28;20047;-82
2024/01/05 08:58:45;;;;;;;23.20;12.35;;;;;;;;;;5012974;28;20046;-82
2024/01/05 09:01:11;;;;;;;28.50;13.18;;;;;;;;;;5014714;28;20046;-81
2024/01/05 09:03:37;;;;;;;26.35;13.68;;;;;;;;;;5009306;28;20049;-81
2024/01/05 09:06:03;;;;;;;27.55;13.90;;;;;;;;;;4971636;28;20045;-80
2024/01/05 09:08:29;;;;;;;25.65;12.60;;;;;;;;;;5045160;28;20045;-85
2024/01/05 09:10:55;;;;;;;24.83;12.65;;;;;;;;;;5042197;28;20044;-81
2024/01/05 09:13:22;;;;;;;23.70;11.77;;;;;;;;;;5011890;28;20469;-81
2024/01/05 09:15:48;;;;;;;27.48;13.60;;;;;;;;;;5031667;28;20471;-82
2024/01/05 09:18:14;;;;;;;27.10;12.95;;;;;;;;;;5020321;28;20041;-82
2024/01/05 09:20:40;;;;;;;25.13;12.27;;;;;;;;;;5028371;28;20478;-82
2024/01/05 09:23:06;;;;;;;26.98;12.93;;;;;;;;;;5010259;28;20097;-82
2024/01/05 09:25:32;;;;;;;26.33;12.95;;;;;;;;;;5018710;28;20092;-82
2024/01/05 09:28:05;;;;;;;24.40;12.27;;;;;;;;;;5009705;28;20173;-81
2024/01/05 09:30:31;;;;;;;21.33;9.80;;;;;;;;;;5028514;28;20053;-82
2024/01/05 09:32:57;;;;;;;17.20;8.73;;;;;;;;;;5029286;28;20049;-83
2024/01/05 09:35:25;;;;;;;17.67;8.57;;;;;;;;;;5011833;28;20165;-83
2024/01/05 09:37:52;;;;;;;15.75;7.72;;;;;;;;;;5011940;28;20053;-83
2024/01/05 09:40:18;;;;;;;15.40;7.30;;;;;;;;;;5027721;28;20491;-82
2024/01/05 09:42:50;;;;;;;17.52;7.35;;;;;;;;;;4993920;28;20045;-82
2024/01/05 09:45:16;;;;;;;13.35;6.15;;;;;;;;;;5011114;28;20144;-82
2024/01/05 09:47:43;;;;;;;11.60;5.38;;;;;;;;;;5028830;28;20141;-83
2024/01/05 09:50:09;;;;;;;6.25;3.63;;;;;;;;;;5027052;28;20168;-82
2024/01/05 09:52:36;;;;;;;5.03;3.10;;;;;;;;;;5002823;28;20072;-82
2024/01/05 09:55:02;;;;;;;7.63;2.50;;;;;;;;;;5027490;28;20519;-82
2024/01/05 09:57:28;;;;;;;6.25;3.10;;;;;;;;;;5010879;28;20133;-82
2024/01/05 09:59:55;;;;;;;5.75;3.40;;;;;;;;;;5028361;28;20553;-81
2024/01/05 10:02:32;;;;;;;6.30;3.95;;;;;;;;;;5008996;28;20100;-81
2024/01/05 10:04:59;;;;;;;9.38;4.95;;;;;;;;;;5008943;28;20041;-81
2024/01/05 10:07:25;;;;;;;11.55;5.95;;;;;;;;;;5027427;28;20055;-81
2024/01/05 10:09:52;;;;;;;8.77;6.07;;;;;;;;;;5028141;28;20502;-81
2024/01/05 10:12:18;;;;;;;15.00;7.30;;;;;;;;;;5006229;28;20042;-81
2024/01/05 10:14:46;;;;;;;13.60;8.10;;;;;;;;;;5027249;28;20525;-81
2024/01/05 10:17:13;;;;;;;16.02;8.98;;;;;;;;;;5033265;28;20053;-81
2024/01/05 10:19:42;;;;;;;13.25;8.70;;;;;;;;;;5031329;28;20491;-81
2024/01/05 10:22:12;;;;;;;13.73;9.18;;;;;;;;;;5013606;28;20046;-82
2024/01/05 10:24:38;;;;;;;15.60;8.88;;;;;;;;;;5048370;28;20033;-81
2024/01/05 10:27:04;;;;;;;19.00;9.45;;;;;;;;;;5053732;28;20132;-81
2024/01/05 10:29:31;;;;;;;15.93;8.93;;;;;;;;;;5053247;28;20511;-83
2024/01/05 10:32:11;;;;;;;19.05;9.00;;;;;;;;;;5043838;28;20578;-83
2024/01/05 10:34:37;;;;;;;14.13;9.85;;;;;;;;;;5014268;28;20045;-84
2024/01/05 10:37:04;;;;;;;18.73;10.05;;;;;;;;;;5013714;28;20505;-83
2024/01/05 10:39:30;;;;;;;17.98;10.25;;;;;;;;;;5014572;28;20063;-84
2024/01/05 10:42:14;;;;;;;20.88;9.82;;;;;;;;;;5014071;28;20513;-82
2024/01/05 10:44:42;;;;;;;18.95;11.55;;;;;;;;;;5013662;28;20045;-81
2024/01/05 10:47:09;;;;;;;21.02;11.27;;;;;;;;;;5014330;28;20455;-81
2024/01/05 10:49:35;;;;;;;20.00;11.18;;;;;;;;;;5014406;28;20083;-81
2024/01/05 10:52:02;;;;;;;17.58;10.07;;;;;;;;;;5018755;28;20051;-81
2024/01/05 10:54:30;;;;;;;20.40;10.77;;;;;;;;;;5032833;28;20044;-80
2024/01/05 10:56:57;;;;;;;19.20;9.80;;;;;;;;;;5032965;28;20067;-79
2024/01/05 10:59:24;;;;;;;16.17;9.40;;;;;;;;;;5047292;28;20037;-82
2024/01/05 11:01:50;;;;;;;18.02;8.88;;;;;;;;;;5023158;28;20115;-82
2024/01/05 11:04:18;;;;;;;12.65;6.65;;;;;;;;;;5030612;28;20522;-82
2024/01/05 11:06:44;;;;;;;11.73;6.18;;;;;;;;;;5013781;28;20095;-84
2024/01/05 11:09:36;;;;;;;10.88;6.30;;;;;;;;;;5013581;28;20045;-84
2024/01/05 11:12:09;;;;;;;9.15;5.22;;;;;;;;;;5012506;28;20083;-84
2024/01/05 11:14:50;;;;;;;22.10;5.50;;;;;;;;;;5012452;28;20069;-81
2024/01/05 11:17:22;;;;;;;7.63;4.03;;;;;;;;;;5012856;28;20103;-85
2024/01/05 11:19:55;;;;;;;8.50;3.97;;;;;;;;;;4996953;28;20666;-84
2024/01/05 11:22:35;;;;;;;6.25;3.38;;;;;;;;;;5001055;28;20099;-84
2024/01/05 11:25:02;;;;;;;7.60;3.40;;;;;;;;;;4998987;28;20049;-83
2024/01/05 11:27:29;;;;;;;7.90;3.72;;;;;;;;;;5011507;28;20059;-83
2024/01/05 11:29:56;;;;;;;6.70;2.78;;;;;;;;;;5012136;28;20135;-82
2024/01/05 11:32:45;;;;;;;5.65;2.40;;;;;;;;;;5018714;28;20062;-83
2024/01/05 11:35:31;;;;;;;4.38;2.40;;;;;;;;;;5022422;28;20057;-84
2024/01/05 11:37:58;;;;;;;4.55;2.05;;;;;;;;;;5025586;28;20049;-83
2024/01/05 11:40:28;;;;;;;3.80;1.85;;;;;;;;;;5006882;28;20045;-82
2024/01/05 11:42:54;;;;;;;3.95;1.55;;;;;;;;;;5011489;28;20110;-83
2024/01/05 11:45:39;;;;;;;7.70;3.58;;;;;;;;;;5010852;28;20075;-86
2024/01/05 11:48:05;;;;;;;3.03;2.42;;;;;;;;;;5011620;28;20132;-83
2024/01/05 11:50:36;;;;;;;3.55;1.42;;;;;;;;;;5013660;28;20148;-83
2024/01/05 11:53:09;;;;;;;2.78;1.45;;;;;;;;;;5010097;28;20048;-82
2024/01/05 11:55:41;;;;;;;1.50;1.38;;;;;;;;;;5012649;28;20076;-82
2024/01/05 11:58:10;;;;;;;2.25;1.10;;;;;;;;;;5025725;28;20045;-83
2024/01/05 12:00:36;;;;;;;3.30;1.10;;;;;;;;;;4996109;28;20049;-81
2024/01/05 12:03:05;;;;;;;2.78;1.52;;;;;;;;;;4995433;28;20119;-82
2024/01/05 12:05:31;;;;;;;2.50;1.50;;;;;;;;;;5011490;28;20076;-83
2024/01/05 12:07:58;;;;;;;2.40;1.77;;;;;;;;;;5011515;28;20041;-83
2024/01/05 12:10:28;;;;;;;2.45;1.25;;;;;;;;;;5011617;28;20056;-82
2024/01/05 12:12:57;;;;;;;1.60;0.85;;;;;;;;;;5010776;28;20085;-82
2024/01/05 12:15:24;;;;;;;0.75;0.75;;;;;;;;;;5011189;28;20088;-83
2024/01/05 12:17:51;;;;;;;0.80;0.80;;;;;;;;;;5011105;28;20099;-82
2024/01/05 12:20:18;;;;;;;2.20;0.80;;;;;;;;;;4995193;28;20046;-81
2024/01/05 12:22:44;;;;;;;1.42;1.00;;;;;;;;;;5009619;28;20099;-81
2024/01/05 12:25:10;;;;;;;1.08;0.90;;;;;;;;;;5029348;28;20045;-81
2024/01/05 12:27:40;;;;;;;1.45;1.00;;;;;;;;;;5029225;28;20520;-82
2024/01/05 12:30:07;;;;;;;1.85;0.73;;;;;;;;;;4994744;28;20458;-82
2024/01/05 12:32:33;;;;;;;1.42;1.00;;;;;;;;;;5013971;28;20033;-82
2024/01/05 12:35:03;;;;;;;1.50;0.90;;;;;;;;;;5023421;28;20124;-81
2024/01/05 12:37:31;;;;;;;1.23;0.77;;;;;;;;;;5029757;28;20059;-81
2024/01/05 12:40:10;;;;;;;1.73;0.90;;;;;;;;;;5010097;28;20057;-81
2024/01/05 12:42:37;;;;;;;1.83;1.00;;;;;;;;;;5010761;28;20041;-82
2024/01/05 12:45:08;;;;;;;2.33;1.10;;;;;;;;;;5011084;28;20123;-81
2024/01/05 12:47:34;;;;;;;2.65;0.90;;;;;;;;;;5010106;28;20049;-81
2024/01/05 12:50:00;;;;;;;1.05;0.85;;;;;;;;;;5010182;28;20196;-81
2024/01/05 12:52:36;;;;;;;1.27;0.73;;;;;;;;;;5028022;28;20041;-81
2024/01/05 12:55:03;;;;;;;2.00;1.10;;;;;;;;;;5010947;28;20449;-81
2024/01/05 12:57:30;;;;;;;1.92;1.00;;;;;;;;;;5027956;28;20056;-81
2024/01/05 13:00:00;;;;;;;1.48;0.80;;;;;;;;;;5027895;28;20046;-81
2024/01/05 13:02:26;;;;;;;1.38;1.15;;;;;;;;;;4993291;28;20053;-81
2024/01/05 13:04:52;;;;;;;1.08;0.98;;;;;;;;;;5028319;28;20049;-81
2024/01/05 13:07:18;;;;;;;1.08;0.90;;;;;;;;;;5009990;28;20056;-81
2024/01/05 13:09:44;;;;;;;1.17;1.02;;;;;;;;;;5026554;28;20793;-82
2024/01/05 13:12:10;;;;;;;1.10;1.00;;;;;;;;;;5029855;28;20055;-83
2024/01/05 13:14:36;;;;;;;1.20;1.05;;;;;;;;;;5030157;28;20475;-82
2024/01/05 13:17:04;;;;;;;1.02;1.02;;;;;;;;;;5013641;28;20056;-82
2024/01/05 13:19:30;;;;;;;1.33;0.70;;;;;;;;;;5026575;28;20061;-82
2024/01/05 13:21:56;;;;;;;0.90;0.90;;;;;;;;;;5019289;28;20407;-80
2024/01/05 13:24:22;;;;;;;0.90;0.90;;;;;;;;;;5012924;28;20076;-80
2024/01/05 13:26:49;;;;;;;1.02;0.90;;;;;;;;;;5024433;28;20053;-85
2024/01/05 13:29:15;;;;;;;0.77;0.75;;;;;;;;;;5010537;28;20045;-81
2024/01/05 13:31:41;;;;;;;0.70;0.70;;;;;;;;;;5010226;28;20107;-81
2024/01/05 13:34:07;;;;;;;1.02;0.90;;;;;;;;;;5009869;28;20377;-80
2024/01/05 13:36:32;;;;;;;2.08;1.00;;;;;;;;;;5010270;28;20045;-81
2024/01/05 13:38:58;;;;;;;1.17;1.05;;;;;;;;;;5009161;28;20162;-80
2024/01/05 13:41:24;;;;;;;0.90;0.90;;;;;;;;;;5008476;28;20458;-81
2024/01/05 13:43:50;;;;;;;0.95;0.95;;;;;;;;;;5009319;28;20053;-80
2024/01/05 13:46:16;;;;;;;1.52;1.00;;;;;;;;;;5026581;28;20111;-81
2024/01/05 13:48:42;;;;;;;1.35;1.25;;;;;;;;;;5028088;28;20368;-80
2024/01/05 13:51:08;;;;;;;1.90;1.25;;;;;;;;;;5010614;28;20048;-80
2024/01/05 13:53:34;;;;;;;1.65;1.50;;;;;;;;;;5009102;28;20042;-80
2024/01/05 13:56:02;;;;;;;2.85;1.30;;;;;;;;;;5010443;28;20057;-81
2024/01/05 13:58:28;;;;;;;3.03;1.58;;;;;;;;;;5014676;28;20129;-81
2024/01/05 14:00:58;;;;;;;1.60;1.50;;;;;;;;;;5007910;28;20145;-82
2024/01/05 14:03:25;;;;;;;1.92;1.83;;;;;;;;;;5026858;28;20900;-81
2024/01/05 14:05:51;;;;;;;4.28;2.35;;;;;;;;;;5027928;28;20129;-81
2024/01/05 14:08:18;;;;;;;2.72;2.20;;;;;;;;;;5004233;28;20133;-81
2024/01/05 14:10:45;;;;;;;2.55;2.15;;;;;;;;;;5008314;28;20053;-80
2024/01/05 14:13:11;;;;;;;2.90;2.42;;;;;;;;;;5009516;28;20510;-80
2024/01/05 14:15:37;;;;;;;2.85;1.85;;;;;;;;;;5011247;28;20098;-80
2024/01/05 14:18:03;;;;;;;2.47;2.05;;;;;;;;;;5013194;28;20426;-80
2024/01/05 14:20:29;;;;;;;2.58;2.38;;;;;;;;;;5017931;28;20103;-80
2024/01/05 14:22:55;;;;;;;2.42;2.10;;;;;;;;;;4993306;28;20052;-80
2024/01/05 14:25:21;;;;;;;2.50;2.30;;;;;;;;;;4993236;28;20045;-80
2024/01/05 14:27:47;;;;;;;2.65;2.20;;;;;;;;;;5009839;28;20072;-80